Bismarck, Arkansas
Current Conditions -  °F | °C
As of 7:53 AM on Friday 28 Nov 2014 (Local Time) from KHOT Reporting Station
Clear Clear  
Wind Chill: 38°   Ceiling: Unl
Heat Index: 38°   Visibility: 10mi
Dew Point: 31°   Wind: 3mph
Humidity: 76%   Direction: 150°SSE
Pressure: 30.35"   Gusts: NA
Location:  34.32°N, 93.17°W
Report Text: KHOT 281353Z AUTO 15003KT 10SM CLR 03/M01 A3035 RMK AO2 SLP279 T00331006
Loading
Personal Weather Stations






























Interactive Weather Map New forecast layout! Learn more

10-Day Weather Forecast

Advertisements
Track Severe Weather on mobile